Time;durP1;ratioP1;P1;durP2;ratioP2;P2;SDS_P1;SDS_P2;PMS_P1;PMS_P2;Temp;Humidity;BMP_temperature;BMP_pressure;BME280_temperature;BME280_humidity;BME280_pressure;Samples;Min_cycle;Max_cycle;Signal;HPM_P1;HPM_P2
2023/08/27 00:08:19;;;;;;;10.77;6.03;;;15.50;31.50;;;;;;20832552;28;20079;-44
2023/08/27 00:18:19;;;;;;;11.43;5.90;;;15.60;22.20;;;;;;20833063;28;20378;-44
2023/08/27 00:28:20;;;;;;;7.65;6.20;;;15.50;40.80;;;;;;20833732;28;20495;-44
2023/08/27 00:38:20;;;;;;;9.27;6.55;;;15.60;32.40;;;;;;20842821;28;20108;-44
2023/08/27 00:48:21;;;;;;;8.40;6.13;;;15.70;37.60;;;;;;20849179;28;20110;-44
2023/08/27 00:58:21;;;;;;;9.48;6.68;;;15.70;29.40;;;;;;20847158;28;20044;-44
2023/08/27 01:09:09;;;;;;;8.10;6.60;;;15.60;25.30;;;;;;20847242;28;20037;-44
2023/08/27 01:19:14;;;;;;;8.70;6.60;;;15.50;30.00;;;;;;20543958;28;20041;-44
2023/08/27 01:29:25;;;;;;;8.20;6.53;;;15.60;25.20;;;;;;20845370;28;20083;-44
2023/08/27 01:39:25;;;;;;;9.20;6.22;;;15.40;34.80;;;;;;20843670;28;20048;-44
2023/08/27 01:49:26;;;;;;;7.88;5.97;;;15.40;31.10;;;;;;20825635;28;20073;-43
2023/08/27 01:59:26;;;;;;;7.73;5.90;;;15.30;21.70;;;;;;20843198;28;20045;-44
2023/08/27 02:09:27;;;;;;;8.82;5.53;;;15.20;23.10;;;;;;20840019;28;20490;-44
2023/08/27 02:19:27;;;;;;;7.70;6.28;;;15.10;22.10;;;;;;20840098;28;20525;-44
2023/08/27 02:29:28;;;;;;;8.77;5.35;;;15.20;21.00;;;;;;20822623;28;20045;-44
2023/08/27 02:39:28;;;;;;;9.60;5.93;;;15.10;18.20;;;;;;21208196;23;20064;-45
2023/08/27 02:49:29;;;;;;;8.95;6.30;;;15.00;39.80;;;;;;20840921;28;20048;-45
2023/08/27 02:59:30;;;;;;;8.25;6.57;;;15.10;24.50;;;;;;20837810;28;20510;-44
2023/08/27 03:09:31;;;;;;;7.97;6.30;;;15.10;34.60;;;;;;20837025;28;20045;-44
2023/08/27 03:19:31;;;;;;;12.13;7.03;;;15.10;44.60;;;;;;20839195;28;20041;-44
2023/08/27 03:29:32;;;;;;;15.32;7.57;;;15.20;34.60;;;;;;20836130;28;20510;-44
2023/08/27 03:39:32;;;;;;;9.15;7.38;;;15.10;43.80;;;;;;20834074;28;20064;-45
2023/08/27 03:49:33;;;;;;;11.45;7.53;;;15.10;60.60;;;;;;20836562;28;20099;-43
2023/08/27 03:59:34;;;;;;;11.52;8.20;;;15.00;89.40;;;;;;20834072;28;20492;-43
2023/08/27 04:09:34;;;;;;;11.73;8.20;;;14.90;99.90;;;;;;20831605;28;20025;-44
2023/08/27 04:19:35;;;;;;;12.55;8.88;;;14.70;99.90;;;;;;20832874;28;20055;-44
2023/08/27 04:29:36;;;;;;;14.45;10.75;;;14.70;99.90;;;;;;20831680;28;20212;-43
2023/08/27 04:39:36;;;;;;;13.32;9.73;;;14.90;99.90;;;;;;20829635;28;20049;-44
2023/08/27 04:49:37;;;;;;;11.57;9.13;;;14.80;99.90;;;;;;20831309;28;20045;-44
2023/08/27 04:59:37;;;;;;;12.02;9.60;;;14.70;99.90;;;;;;20831100;28;20398;-45
2023/08/27 05:09:38;;;;;;;13.73;10.48;;;14.50;99.90;;;;;;20829340;28;20045;-44
2023/08/27 05:19:38;;;;;;;12.82;10.15;;;14.60;99.90;;;;;;20824562;28;20053;-44
2023/08/27 05:29:39;;;;;;;16.93;11.93;;;14.70;99.90;;;;;;20844919;28;20033;-44
2023/08/27 05:39:39;;;;;;;19.80;13.05;;;14.80;99.90;;;;;;20843551;28;20057;-43
2023/08/27 05:49:43;;;;;;;15.82;11.60;;;14.80;99.90;;;;;;20844888;28;20048;-43
2023/08/27 05:59:44;;;;;;;15.20;11.52;;;14.80;99.90;;;;;;20842794;28;20037;-43
2023/08/27 06:09:44;;;;;;;16.15;10.85;;;14.80;99.90;;;;;;20841255;28;20041;-43
2023/08/27 06:19:45;;;;;;;15.70;10.38;;;14.80;99.90;;;;;;20841553;28;20159;-44
2023/08/27 06:29:45;;;;;;;14.73;10.52;;;14.90;99.90;;;;;;20838982;28;20033;-43
2023/08/27 06:39:46;;;;;;;13.80;10.35;;;15.00;99.90;;;;;;20838655;28;20052;-43
2023/08/27 06:49:51;;;;;;;13.70;10.60;;;15.10;99.90;;;;;;20840398;28;20132;-43
2023/08/27 06:59:52;;;;;;;17.33;11.35;;;15.40;99.90;;;;;;20838287;28;20040;-44
2023/08/27 07:09:52;;;;;;;17.15;10.98;;;15.60;99.90;;;;;;20836971;28;20051;-44
2023/08/27 07:19:53;;;;;;;19.60;11.55;;;15.80;99.90;;;;;;20837444;28;20403;-44
2023/08/27 07:29:53;;;;;;;19.40;13.23;;;16.10;99.90;;;;;;20835141;28;20080;-43
2023/08/27 07:39:54;;;;;;;19.13;14.18;;;16.20;99.90;;;;;;20835127;28;20868;-44
2023/08/27 07:49:54;;;;;;;19.02;14.55;;;16.30;99.90;;;;;;20832762;28;20532;-44
2023/08/27 07:59:55;;;;;;;15.40;12.32;;;16.50;99.90;;;;;;20833109;28;20145;-44
2023/08/27 08:09:56;;;;;;;15.90;12.50;;;17.00;53.20;;;;;;20831566;28;20106;-44
2023/08/27 08:19:56;;;;;;;16.88;13.18;;;17.00;7.60;;;;;;20835508;28;20064;-44
2023/08/27 08:29:57;;;;;;;14.17;12.03;;;17.00;1.00;;;;;;20831808;28;20057;-45
2023/08/27 08:39:57;;;;;;;13.18;11.05;;;17.60;1.00;;;;;;20831274;28;20502;-45
2023/08/27 08:50:03;;;;;;;13.07;9.50;;;17.80;1.00;;;;;;20832821;28;20042;-45
2023/08/27 09:00:07;;;;;;;11.75;9.60;;;17.70;1.00;;;;;;20843708;28;20156;-45
2023/08/27 09:10:10;;;;;;;13.57;8.98;;;17.30;1.00;;;;;;20845092;28;20033;-44
2023/08/27 09:20:11;;;;;;;6.82;4.57;;;17.10;1.00;;;;;;20847877;28;20045;-45
2023/08/27 09:30:12;;;;;;;2.55;1.90;;;17.30;1.00;;;;;;20845712;28;20045;-45
2023/08/27 09:40:18;;;;;;;2.67;1.25;;;17.40;1.00;;;;;;20842712;28;20129;-44
2023/08/27 09:50:19;;;;;;;1.98;0.90;;;18.30;1.00;;;;;;20844767;28;20041;-45
2023/08/27 10:00:22;;;;;;;1.77;0.77;;;18.70;1.00;;;;;;20842359;28;20487;-44
2023/08/27 10:10:23;;;;;;;1.08;0.60;;;18.30;1.00;;;;;;20841239;28;20042;-45
2023/08/27 10:20:23;;;;;;;1.73;0.60;;;17.80;1.00;;;;;;20843399;28;20404;-45
2023/08/27 10:30:25;;;;;;;2.78;0.70;;;17.60;1.00;;;;;;20841120;28;20044;-45
2023/08/27 10:40:26;;;;;;;1.20;0.50;;;17.60;1.00;;;;;;20828382;28;20136;-44
2023/08/27 10:50:27;;;;;;;2.33;0.70;;;17.20;1.00;;;;;;20842245;28;20495;-44
2023/08/27 11:00:27;;;;;;;1.75;0.68;;;16.60;1.00;;;;;;20838722;28;20048;-44
2023/08/27 11:10:32;;;;;;;1.10;0.50;;;16.50;1.00;;;;;;20837401;28;20041;-44
2023/08/27 11:20:32;;;;;;;1.63;0.70;;;16.70;1.00;;;;;;20839104;28;20038;-44
2023/08/27 11:30:33;;;;;;;1.30;0.40;;;18.00;1.00;;;;;;20835247;28;20032;-44
2023/08/27 11:40:33;;;;;;;3.42;1.27;;;17.80;1.00;;;;;;20834916;28;20048;-44
2023/08/27 11:50:38;;;;;;;2.53;1.00;;;17.60;1.00;;;;;;20836664;28;20057;-45
2023/08/27 12:00:43;;;;;;;4.25;1.25;;;18.50;1.00;;;;;;20834985;28;20120;-44
2023/08/27 12:10:44;;;;;;;3.53;0.50;;;18.80;1.00;;;;;;20832007;28;20427;-44
2023/08/27 12:20:48;;;;;;;3.53;0.80;;;19.70;1.00;;;;;;20833140;28;20440;-45
2023/08/27 12:30:52;;;;;;;2.88;0.75;;;19.90;1.00;;;;;;20833258;28;20037;-45
2023/08/27 12:40:53;;;;;;;3.50;1.02;;;20.00;1.00;;;;;;20832127;28;20045;-44
2023/08/27 12:50:54;;;;;;;4.15;1.10;;;19.70;1.00;;;;;;20832031;28;20040;-45
2023/08/27 13:00:54;;;;;;;2.83;1.10;;;19.90;1.00;;;;;;20832122;28;20045;-45
2023/08/27 13:10:55;;;;;;;2.92;1.50;;;19.10;1.00;;;;;;20826883;28;20038;-44
2023/08/27 13:20:56;;;;;;;2.72;1.63;;;18.50;1.00;;;;;;20829368;28;20049;-44
2023/08/27 13:30:56;;;;;;;4.45;1.30;;;17.60;1.00;;;;;;20830166;28;20366;-44
2023/08/27 13:40:57;;;;;;;3.47;1.90;;;17.30;1.00;;;;;;20832005;28;20053;-45
2023/08/27 13:50:58;;;;;;;4.05;2.03;;;18.00;1.00;;;;;;20843690;28;20037;-45
2023/08/27 14:00:58;;;;;;;2.80;1.60;;;17.60;1.00;;;;;;20844071;28;20085;-45
2023/08/27 14:10:59;;;;;;;3.05;1.60;;;17.30;1.00;;;;;;20841138;28;20874;-45
2023/08/27 14:21:00;;;;;;;2.42;1.10;;;17.20;1.00;;;;;;20842832;28;20047;-45
2023/08/27 14:31:00;;;;;;;4.60;1.80;;;16.70;1.00;;;;;;20841051;28;20132;-43
2023/08/27 14:41:01;;;;;;;3.88;2.47;;;15.90;1.00;;;;;;20838283;28;20041;-43
2023/08/27 14:51:01;;;;;;;6.65;3.75;;;15.60;18.30;;;;;;20839918;28;20056;-44
2023/08/27 15:01:02;;;;;;;3.78;2.63;;;15.50;30.20;;;;;;20839538;28;20045;-43
2023/08/27 15:11:03;;;;;;;6.03;4.07;;;15.50;99.90;;;;;;20835865;28;20036;-44
2023/08/27 15:21:04;;;;;;;6.30;4.10;;;15.80;99.90;;;;;;20836267;28;20052;-45
2023/08/27 15:31:05;;;;;;;4.97;4.37;;;15.90;99.90;;;;;;20834949;28;20052;-45
2023/08/27 15:41:05;;;;;;;3.08;2.00;;;16.20;99.90;;;;;;20835396;28;20525;-44
2023/08/27 15:51:06;;;;;;;3.35;1.83;;;16.10;41.60;;;;;;20835876;28;20087;-44
2023/08/27 16:01:06;;;;;;;3.67;1.80;;;16.20;6.40;;;;;;20834099;28;20037;-44
2023/08/27 16:11:07;;;;;;;3.38;1.58;;;16.50;1.00;;;;;;20833633;28;20941;-44
2023/08/27 16:21:08;;;;;;;7.68;1.35;;;16.70;1.00;;;;;;20834272;28;20032;-43
2023/08/27 16:31:19;;;;;;;3.08;1.92;;;16.70;1.00;;;;;;20832731;28;20036;-44
2023/08/27 16:41:20;;;;;;;3.88;2.40;;;16.40;1.00;;;;;;20831650;28;20083;-44
2023/08/27 16:51:22;;;;;;;4.47;2.97;;;16.30;1.00;;;;;;20831896;28;20076;-44
2023/08/27 17:01:22;;;;;;;4.72;3.20;;;16.50;1.00;;;;;;20831353;28;20037;-44
2023/08/27 17:11:23;;;;;;;6.38;3.97;;;16.50;1.00;;;;;;20825598;28;20033;-44
2023/08/27 17:21:24;;;;;;;6.20;4.95;;;16.40;1.00;;;;;;20842553;28;20033;-44
2023/08/27 17:31:25;;;;;;;3.50;2.40;;;16.40;1.00;;;;;;20846790;28;20550;-44
2023/08/27 17:41:27;;;;;;;4.32;2.40;;;16.10;1.00;;;;;;20844451;28;20037;-44
2023/08/27 17:51:28;;;;;;;4.07;2.53;;;15.80;1.00;;;;;;20844667;28;20224;-44
2023/08/27 18:01:28;;;;;;;4.93;2.40;;;15.60;13.20;;;;;;20844580;28;20492;-44
2023/08/27 18:11:29;;;;;;;5.13;2.80;;;15.40;20.10;;;;;;20841541;28;20680;-44
2023/08/27 18:21:30;;;;;;;4.53;2.50;;;15.40;24.40;;;;;;20842286;28;20797;-43
2023/08/27 18:31:30;;;;;;;4.55;2.92;;;15.20;50.00;;;;;;20840830;28;20810;-44
2023/08/27 18:41:31;;;;;;;5.55;3.17;;;14.90;97.90;;;;;;20840032;28;20119;-44
2023/08/27 18:51:31;;;;;;;6.32;3.90;;;14.80;99.90;;;;;;20841411;28;20500;-44
2023/08/27 19:01:32;;;;;;;8.50;5.35;;;14.60;99.90;;;;;;20837553;28;20524;-44
2023/08/27 19:11:32;;;;;;;7.68;6.13;;;14.50;99.90;;;;;;20837085;28;20049;-44
2023/08/27 19:21:33;;;;;;;8.45;6.45;;;14.40;99.90;;;;;;20837946;28;20067;-44
2023/08/27 19:31:34;;;;;;;10.00;6.47;;;14.30;99.90;;;;;;20838316;28;20625;-45
2023/08/27 19:41:34;;;;;;;7.43;5.80;;;14.20;99.90;;;;;;20838457;28;20045;-44
2023/08/27 19:51:37;;;;;;;7.60;5.32;;;14.20;99.90;;;;;;20835864;28;20026;-44
2023/08/27 20:01:37;;;;;;;11.05;7.03;;;14.30;99.90;;;;;;20835512;28;20095;-45
2023/08/27 20:11:39;;;;;;;7.90;6.85;;;14.30;99.90;;;;;;20833269;28;20807;-44
2023/08/27 20:21:39;;;;;;;8.20;7.20;;;14.20;99.90;;;;;;20833277;28;20055;-44
2023/08/27 20:31:40;;;;;;;9.35;7.18;;;14.20;99.90;;;;;;20832539;28;20049;-44
2023/08/27 20:41:42;;;;;;;7.65;5.78;;;14.30;99.90;;;;;;20829978;28;20056;-44
2023/08/27 20:51:42;;;;;;;7.60;5.22;;;14.30;99.90;;;;;;20838052;28;20045;-45
2023/08/27 21:01:43;;;;;;;7.22;4.88;;;14.30;99.90;;;;;;20848575;28;20068;-44
2023/08/27 21:11:44;;;;;;;7.63;5.28;;;14.10;99.90;;;;;;20846504;28;20044;-44
2023/08/27 21:21:44;;;;;;;7.07;4.38;;;14.00;99.90;;;;;;20847148;28;20037;-45
2023/08/27 21:31:45;;;;;;;6.22;3.83;;;14.00;99.90;;;;;;20846961;28;20389;-44
2023/08/27 21:41:46;;;;;;;4.68;3.42;;;14.00;99.90;;;;;;20842310;28;20641;-44
2023/08/27 21:51:46;;;;;;;6.20;3.17;;;14.00;99.90;;;;;;20845010;28;20465;-44
2023/08/27 22:01:47;;;;;;;4.82;3.45;;;13.90;99.90;;;;;;20841110;28;20048;-44
2023/08/27 22:11:47;;;;;;;4.63;3.60;;;13.80;99.90;;;;;;20842105;28;20057;-44
2023/08/27 22:21:48;;;;;;;7.10;5.60;;;13.80;99.90;;;;;;20843449;28;20396;-44
2023/08/27 22:31:48;;;;;;;8.15;6.00;;;13.80;99.90;;;;;;20842495;28;20041;-45
2023/08/27 22:41:49;;;;;;;7.55;5.00;;;14.00;99.90;;;;;;20839933;28;20041;-44
2023/08/27 22:51:49;;;;;;;7.82;5.38;;;13.90;99.90;;;;;;20839795;28;20037;-44
2023/08/27 23:01:50;;;;;;;7.80;5.70;;;13.70;99.90;;;;;;20838777;28;20510;-44
2023/08/27 23:11:50;;;;;;;6.93;4.93;;;13.50;99.90;;;;;;20836160;28;20053;-44
2023/08/27 23:21:52;;;;;;;6.45;5.18;;;13.40;99.90;;;;;;20838514;28;20036;-44
2023/08/27 23:31:53;;;;;;;6.93;5.03;;;13.30;99.90;;;;;;20836553;28;20085;-45
2023/08/27 23:41:53;;;;;;;7.00;4.68;;;13.10;99.90;;;;;;20834411;28;20071;-44
2023/08/27 23:51:54;;;;;;;5.28;4.47;;;13.10;99.90;;;;;;20836206;28;20033;-44
